Terminal Aerodrome Forecast
Issued by NWS Twin Cities, MN

Home | Current Version | Previous Version | Graphics & Text | Print | Product List | Glossary On
Versions: 1 2 3 4 5 6 7 8 9 10 11 12 13 14 15 16 17 18 19 20 21 22 23 24 25 26 27 28
000
FTUS43 KMPX 192300 RRA
TAFMSP
TAF
KMSP 192339Z 2000/2106 17005KT P6SM VCSH OVC060
     FM200400 VRB03KT P6SM -SHRA OVC060
     FM201000 VRB03KT P6SM FEW200
     FM201500 07004KT P6SM SKC
     FM202200 09006KT P6SM BKN060=

USA.gov is the U.S. government's official web portal to all federal, state and local government web resources and services.